Western Oslo — LAJH7 — position and weather

sailwx.info

Track history (hours):
 
Tides and Currents Weather Stations Pressure Air Temp Water Temp Dewpoint Dewpoint Depression Visibility Wind Speed Wind Dir Waves Ship Positions

Western Oslo

Last reported at 2017-Oct-25 09:02 UTC. Time now 2017-Nov-21 04:08 UTC.
Position S 24°20' W 045°56'.
Warning: this ship's position is 26 days out of date.

Length 190 m; draft 12.7 m.

Type: Cargo ship. MMSI: 257460000.

Date/timePositionNaut miles runAvg speedWind from/ knotsBaromVisibWave heightAir tempDewpointWater temp
2017-Oct-25 09:02S 24°20' W 045°56'110.2
2017-Oct-25 08:59S 24°20' W 045°57'510.1
2017-Oct-25 08:30S 24°18' W 046°01'510.1
2017-Oct-25 08:00S 24°16' W 046°07'510.1
2017-Oct-25 07:29S 24°15' W 046°12'5 9.9
2017-Oct-25 07:00S 24°14' W 046°17'5 9.1
2017-Oct-25 06:30S 24°12' W 046°22'5 9.4
2017-Oct-25 06:00S 24°07' W 046°23'4 7.7
2017-Oct-25 05:30S 24°04' W 046°22'3 6.7
2017-Oct-25 05:01S 24°01' W 046°20'3 6.2
2017-Oct-25 04:30S 23°59' W 046°17'3 5.5
2017-Oct-25 03:59S 23°56' W 046°19'0 0.0
2017-Oct-24 10:34S 23°57' W 046°19'0 0.1
2017-Oct-24 10:28S 23°57' W 046°19'0 0.0
2017-Oct-24 09:49S 23°57' W 046°19'0 0.0
2017-Oct-24 09:22S 23°57' W 046°19'0 0.0
2017-Oct-24 08:58S 23°57' W 046°19'0 0.0
2017-Oct-24 08:28S 23°57' W 046°19'0 0.0
2017-Oct-24 07:52S 23°57' W 046°19'0 0.0
2017-Oct-24 07:28S 23°57' W 046°19'0 0.0
2017-Oct-24 06:58S 23°57' W 046°19'0 0.0
2017-Oct-24 06:28S 23°57' W 046°19'0 0.0
2017-Oct-24 05:58S 23°57' W 046°19'0 0.0
2017-Oct-24 05:22S 23°57' W 046°19'0 0.0
2017-Oct-24 04:58S 23°57' W 046°19'0 0.0
2017-Oct-24 04:28S 23°57' W 046°19'0 0.0
2017-Oct-24 03:58S 23°57' W 046°19'0 0.0
2017-Oct-24 03:28S 23°57' W 046°19'0 0.0
2017-Oct-24 02:58S 23°57' W 046°19'0 0.0
2017-Oct-24 02:28S 23°57' W 046°19'0 0.0
2017-Oct-24 01:58S 23°57' W 046°19'0 0.0
2017-Oct-24 01:28S 23°57' W 046°19'0 0.0
2017-Oct-24 00:58S 23°57' W 046°19'0 0.0
2017-Oct-24 00:28S 23°57' W 046°19'0 0.0
2017-Oct-23 23:52S 23°57' W 046°19'0 0.0
2017-Oct-23 23:10S 23°57' W 046°19'0 0.0
2017-Oct-23 22:58S 23°57' W 046°19'0 0.0
2017-Oct-23 22:28S 23°57' W 046°19'0 0.0
2017-Oct-23 21:58S 23°57' W 046°19'0 0.0
2017-Oct-23 21:16S 23°57' W 046°19'0 0.0
2017-Oct-23 20:52S 23°57' W 046°19'0 0.0
2017-Oct-23 20:22S 23°57' W 046°19'0 0.0
2017-Oct-23 19:58S 23°57' W 046°19'0 0.0
2017-Oct-23 19:25S 23°57' W 046°19'0 0.0
2017-Oct-23 18:40S 23°57' W 046°19'0 0.0
2017-Oct-23 18:22S 23°57' W 046°19'0 0.0
2017-Oct-23 17:55S 23°57' W 046°19'0 0.0
2017-Oct-23 17:25S 23°57' W 046°19'0 0.0
2017-Oct-23 16:58S 23°57' W 046°19'0 0.0
2017-Oct-23 15:22S 23°57' W 046°19'0 0.0
2017-Oct-23 14:58S 23°57' W 046°19'0 0.0
2017-Oct-23 14:28S 23°57' W 046°19'0 0.0
2017-Oct-23 13:58S 23°57' W 046°19'0 0.0
2017-Oct-23 13:25S 23°57' W 046°19'0 0.0
2017-Oct-23 12:46S 23°57' W 046°19'0 0.0
2017-Oct-23 12:28S 23°57' W 046°19'0 0.0
2017-Oct-23 11:58S 23°57' W 046°19'0 0.0
2017-Oct-23 11:22S 23°57' W 046°19'0 0.0
2017-Oct-23 10:52S 23°57' W 046°19'0 0.0
2017-Oct-23 10:28S 23°57' W 046°19'0 0.0
2017-Oct-23 09:58S 23°57' W 046°19'0 0.0
2017-Oct-23 09:28S 23°57' W 046°19'0 0.0
2017-Oct-23 08:46S 23°57' W 046°19'0 0.0
2017-Oct-23 08:28S 23°57' W 046°19'0 0.0
2017-Oct-23 07:55S 23°57' W 046°19'0 0.0
2017-Oct-23 07:25S 23°57' W 046°19'0 0.0
2017-Oct-23 06:58S 23°57' W 046°19'0 0.0
2017-Oct-23 06:22S 23°57' W 046°19'0 0.0
2017-Oct-23 05:58S 23°57' W 046°19'0 0.0
2017-Oct-23 05:28S 23°57' W 046°19'0 0.0
2017-Oct-23 04:46S 23°57' W 046°19'0 0.0
2017-Oct-23 04:22S 23°57' W 046°19'0 0.0
2017-Oct-23 03:55S 23°57' W 046°19'0 0.0
2017-Oct-23 03:28S 23°57' W 046°19'0 0.0
2017-Oct-23 02:58S 23°57' W 046°19'0 0.0
2017-Oct-23 02:28S 23°57' W 046°19'0 0.0
2017-Oct-23 01:58S 23°57' W 046°19'0 0.0
2017-Oct-23 01:28S 23°57' W 046°19'0 0.0
2017-Oct-23 00:40S 23°57' W 046°19'0 0.0
2017-Oct-23 00:28S 23°57' W 046°19'0 0.0
2017-Oct-22 23:49S 23°57' W 046°19'0 0.0
2017-Oct-22 23:28S 23°57' W 046°19'0 0.0
2017-Oct-22 22:58S 23°57' W 046°19'0 0.0
2017-Oct-22 22:28S 23°57' W 046°19'0 0.0
2017-Oct-22 21:58S 23°57' W 046°19'0 0.0
2017-Oct-22 21:28S 23°57' W 046°19'0 0.0
2017-Oct-22 20:58S 23°57' W 046°19'0 0.0
2017-Oct-22 20:28S 23°57' W 046°19'0 0.0
2017-Oct-22 19:58S 23°57' W 046°19'0 0.0
2017-Oct-22 19:28S 23°57' W 046°19'0 0.0
2017-Oct-22 18:58S 23°57' W 046°19'0 0.0
2017-Oct-22 18:28S 23°57' W 046°19'0 0.0
2017-Oct-22 17:58S 23°57' W 046°19'0 0.0
2017-Oct-22 17:25S 23°57' W 046°19'0 0.0
2017-Oct-22 16:58S 23°57' W 046°19'0 0.0
2017-Oct-22 16:28S 23°57' W 046°19'0 0.0
2017-Oct-22 15:58S 23°57' W 046°19'0 0.0
2017-Oct-22 15:28S 23°57' W 046°19'0 0.0
2017-Oct-22 14:46S 23°57' W 046°19'0 0.0
2017-Oct-22 14:28S 23°57' W 046°19'0 0.0
2017-Oct-22 13:58S 23°57' W 046°19'0 0.0
2017-Oct-22 13:28S 23°57' W 046°19'0 0.0
2017-Oct-22 12:46S 23°57' W 046°19'0 0.0
2017-Oct-22 12:28S 23°57' W 046°19'0 0.0
2017-Oct-22 11:46S 23°57' W 046°19'0 0.0
2017-Oct-22 11:28S 23°57' W 046°19'0 0.0
2017-Oct-22 10:58S 23°57' W 046°19'0 0.0
2017-Oct-22 10:28S 23°57' W 046°19'0 0.0
2017-Oct-22 09:58S 23°57' W 046°19'0 0.1
2017-Oct-22 09:30S 23°57' W 046°19'2 4.1
2017-Oct-22 09:00S 23°58' W 046°18'3 6.0
2017-Oct-22 08:30S 24°00' W 046°20'3 6.2
2017-Oct-22 08:00S 24°03' W 046°21'3 6.6
2017-Oct-22 07:30S 24°06' W 046°23'4 8.7
2017-Oct-22 07:00S 24°09' W 046°20'1 2.4
2017-Oct-22 06:29S 24°10' W 046°19'0 0.1
2017-Oct-22 05:59S 24°09' W 046°19'0 0.1
2017-Oct-22 05:29S 24°09' W 046°19'0 0.0
2017-Oct-22 04:59S 24°09' W 046°19'0 0.0
2017-Oct-22 04:29S 24°09' W 046°19'0 0.1
2017-Oct-22 03:59S 24°09' W 046°19'0 0.0
2017-Oct-22 03:29S 24°09' W 046°19'0 0.0
2017-Oct-22 02:50S 24°09' W 046°19'0 0.0
2017-Oct-22 02:29S 24°09' W 046°19'0 0.0
2017-Oct-22 01:59S 24°09' W 046°19'0 0.0
2017-Oct-22 01:29S 24°09' W 046°19'0 0.1
2017-Oct-22 00:59S 24°09' W 046°19'0 0.2
2017-Oct-22 00:29S 24°10' W 046°19'0 0.0
2017-Oct-21 23:59S 24°10' W 046°19'0 0.0
2017-Oct-21 23:29S 24°10' W 046°19'0 0.0
2017-Oct-21 22:59S 24°10' W 046°19'0 0.0
2017-Oct-21 22:29S 24°10' W 046°19'0 0.0
2017-Oct-21 21:59S 24°10' W 046°19'0 0.2
2017-Oct-21 21:29S 24°10' W 046°19'0 0.1
2017-Oct-21 20:59S 24°10' W 046°19'0 0.0
2017-Oct-21 20:23S 24°10' W 046°19'0 0.1
2017-Oct-21 19:59S 24°10' W 046°19'0 0.0
2017-Oct-21 19:29S 24°10' W 046°19'0 0.0
2017-Oct-21 18:53S 24°10' W 046°19'0 0.0
2017-Oct-21 18:29S 24°10' W 046°19'0 0.0
2017-Oct-21 17:59S 24°10' W 046°19'0 0.0
2017-Oct-21 17:29S 24°10' W 046°19'0 0.0
2017-Oct-21 16:59S 24°10' W 046°19'0 0.1
2017-Oct-21 16:29S 24°10' W 046°19'0 0.1
2017-Oct-21 15:59S 24°10' W 046°19'0 0.0
2017-Oct-21 15:29S 24°10' W 046°19'0 0.0
2017-Oct-21 14:59S 24°10' W 046°19'0 0.0
2017-Oct-21 14:29S 24°10' W 046°19'0 0.0
2017-Oct-21 13:29S 24°10' W 046°19'0 0.1
2017-Oct-21 12:59S 24°10' W 046°19'0 0.1
2017-Oct-21 12:23S 24°10' W 046°19'0 0.1
2017-Oct-21 11:59S 24°10' W 046°19'0 0.1
2017-Oct-21 11:29S 24°10' W 046°19'0 0.0
2017-Oct-21 10:59S 24°10' W 046°19'0 0.1
2017-Oct-21 10:29S 24°10' W 046°19'0 0.0
2017-Oct-21 09:59S 24°10' W 046°19'0 0.0
2017-Oct-21 09:29S 24°10' W 046°19'0 0.0
2017-Oct-21 08:59S 24°10' W 046°19'0 0.0
2017-Oct-21 08:23S 24°10' W 046°19'0 0.1
2017-Oct-21 07:53S 24°10' W 046°19'0 0.0
2017-Oct-21 07:29S 24°10' W 046°19'0 0.0
2017-Oct-21 06:59S 24°10' W 046°19'0 0.1
2017-Oct-21 06:29S 24°09' W 046°19'0 0.0
2017-Oct-21 05:59S 24°09' W 046°19'0 0.0
2017-Oct-21 05:29S 24°09' W 046°19'0 0.0
2017-Oct-21 04:59S 24°09' W 046°19'0 0.0
2017-Oct-21 04:29S 24°09' W 046°19'0 0.0
2017-Oct-21 03:59S 24°09' W 046°19'0 0.0
2017-Oct-21 03:29S 24°09' W 046°19'0 0.0
2017-Oct-21 02:53S 24°09' W 046°19'0 0.0
2017-Oct-21 02:29S 24°09' W 046°19'0 0.0
2017-Oct-21 01:59S 24°09' W 046°19'0 0.0
2017-Oct-21 01:29S 24°09' W 046°19'0 0.0
2017-Oct-21 00:59S 24°09' W 046°19'0 0.0
2017-Oct-21 00:26S 24°09' W 046°19'0 0.0
2017-Oct-20 23:59S 24°09' W 046°19'0 0.0
2017-Oct-20 23:29S 24°09' W 046°19'0 0.0
2017-Oct-20 22:59S 24°09' W 046°19'0 0.0
2017-Oct-20 22:29S 24°09' W 046°19'0 0.0
2017-Oct-20 21:56S 24°09' W 046°19'0 0.0
2017-Oct-20 21:26S 24°09' W 046°19'0 0.0
2017-Oct-20 20:59S 24°09' W 046°19'0 0.0
2017-Oct-20 20:29S 24°09' W 046°19'0 0.0
2017-Oct-20 19:59S 24°09' W 046°19'0 0.0
2017-Oct-20 19:29S 24°09' W 046°19'0 0.1
2017-Oct-20 18:59S 24°09' W 046°19'0 0.0
2017-Oct-20 18:29S 24°09' W 046°19'0 0.0
2017-Oct-20 17:59S 24°09' W 046°19'0 0.0
2017-Oct-20 17:23S 24°09' W 046°19'0 0.0
2017-Oct-20 16:59S 24°09' W 046°19'0 0.0
2017-Oct-20 16:29S 24°09' W 046°19'0 0.0
2017-Oct-20 15:59S 24°09' W 046°19'0 0.0
2017-Oct-20 15:29S 24°09' W 046°19'0 0.0
2017-Oct-20 14:59S 24°09' W 046°19'0 0.0
2017-Oct-20 14:29S 24°09' W 046°19'0 0.0
2017-Oct-20 13:29S 24°09' W 046°19'0 0.0
2017-Oct-20 12:59S 24°09' W 046°19'0 0.0
2017-Oct-20 12:29S 24°09' W 046°19'0 0.0
2017-Oct-20 11:59S 24°09' W 046°19'0 0.0
2017-Oct-20 11:29S 24°09' W 046°19'0 0.0
2017-Oct-20 10:59S 24°09' W 046°19'0 0.0
2017-Oct-20 10:29S 24°09' W 046°19'0 0.0
2017-Oct-20 09:59S 24°09' W 046°19'0 0.0
2017-Oct-20 09:29S 24°09' W 046°19'0 0.0
2017-Oct-20 08:59S 24°09' W 046°19'0 0.0
2017-Oct-20 08:29S 24°09' W 046°19'0 0.0
2017-Oct-20 07:59S 24°09' W 046°19'0 0.0
2017-Oct-20 07:29S 24°09' W 046°19'0 0.0
2017-Oct-20 06:59S 24°09' W 046°19'0 0.0
2017-Oct-20 06:29S 24°09' W 046°19'0 0.0
2017-Oct-20 05:59S 24°09' W 046°19'0 0.0
2017-Oct-20 05:29S 24°09' W 046°19'0 0.0
2017-Oct-20 04:59S 24°09' W 046°19'0 0.0
2017-Oct-20 04:23S 24°09' W 046°19'0 0.0
2017-Oct-20 03:59S 24°09' W 046°19'0 0.0
2017-Oct-20 03:23S 24°09' W 046°19'0 0.0
2017-Oct-20 02:59S 24°09' W 046°19'0 0.0
2017-Oct-20 02:26S 24°09' W 046°19'0 0.0
2017-Oct-20 01:59S 24°09' W 046°19'0 0.0
2017-Oct-20 01:29S 24°09' W 046°19'0 0.1
2017-Oct-20 00:59S 24°09' W 046°19'0 0.0
2017-Oct-20 00:29S 24°10' W 046°19'0 0.0
2017-Oct-19 23:59S 24°10' W 046°19'0 0.0
2017-Oct-19 23:29S 24°10' W 046°19'0 0.0
2017-Oct-19 22:59S 24°10' W 046°19'0 0.0
2017-Oct-19 22:29S 24°09' W 046°19'0 0.0
2017-Oct-19 21:59S 24°09' W 046°19'0 0.1
2017-Oct-19 21:29S 24°09' W 046°19'0 0.4
2017-Oct-19 20:53S 24°10' W 046°19'0 0.1
2017-Oct-19 20:29S 24°10' W 046°19'0 0.0
2017-Oct-19 19:59S 24°10' W 046°19'0 0.0
2017-Oct-19 19:17S 24°10' W 046°19'0 0.0
2017-Oct-19 18:59S 24°10' W 046°19'0 0.0
2017-Oct-19 18:29S 24°10' W 046°19'0 0.0
2017-Oct-19 17:59S 24°10' W 046°19'0 0.0
2017-Oct-19 17:29S 24°10' W 046°19'0 0.0
2017-Oct-19 16:59S 24°10' W 046°19'0 0.0
2017-Oct-19 16:29S 24°10' W 046°19'0 0.0
2017-Oct-19 15:59S 24°10' W 046°19'0 0.0
2017-Oct-19 15:29S 24°10' W 046°19'0 0.0
2017-Oct-19 14:59S 24°10' W 046°19'0 0.0
2017-Oct-19 14:29S 24°10' W 046°19'0 0.0
2017-Oct-19 13:59S 24°10' W 046°19'0 0.0
2017-Oct-19 13:29S 24°10' W 046°19'0 0.0
2017-Oct-19 12:59S 24°10' W 046°19'0 0.0
2017-Oct-19 12:29S 24°10' W 046°19'0 0.0
2017-Oct-19 11:59S 24°10' W 046°19'0 0.0
2017-Oct-19 11:23S 24°10' W 046°19'0 0.1
2017-Oct-19 10:59S 24°10' W 046°19'0 0.0
2017-Oct-19 10:29S 24°10' W 046°19'0 0.0
2017-Oct-19 09:53S 24°10' W 046°19'0 0.0
2017-Oct-19 09:29S 24°10' W 046°19'0 0.0
2017-Oct-19 08:53S 24°10' W 046°19'0 0.0
2017-Oct-19 08:29S 24°10' W 046°19'0 0.0
2017-Oct-19 07:59S 24°10' W 046°19'0 0.0
2017-Oct-19 07:29S 24°10' W 046°19'0 0.1
2017-Oct-19 06:53S 24°10' W 046°19'0 0.0
2017-Oct-19 06:29S 24°10' W 046°19'0 0.0
2017-Oct-19 05:59S 24°10' W 046°19'0 0.0
2017-Oct-19 05:29S 24°10' W 046°19'0 0.0
2017-Oct-19 04:59S 24°10' W 046°19'0 0.0
2017-Oct-19 04:29S 24°10' W 046°19'0 0.1
2017-Oct-19 03:59S 24°10' W 046°19'0 0.0
2017-Oct-19 03:29S 24°10' W 046°19'0 0.0
2017-Oct-19 02:41S 24°10' W 046°19'0 0.0
2017-Oct-19 02:29S 24°10' W 046°19'0 0.0
2017-Oct-19 01:59S 24°10' W 046°19'0 0.0
2017-Oct-19 01:29S 24°10' W 046°19'0 0.0
2017-Oct-19 00:59S 24°10' W 046°19'0 0.0
2017-Oct-19 00:29S 24°10' W 046°19'0 0.0
2017-Oct-18 23:59S 24°10' W 046°19'0 0.0
2017-Oct-18 23:17S 24°10' W 046°19'0 0.0
2017-Oct-18 22:59S 24°10' W 046°19'0 0.0
2017-Oct-18 22:26S 24°10' W 046°19'0 0.0
2017-Oct-18 21:53S 24°10' W 046°19'0 0.0
2017-Oct-18 21:29S 24°10' W 046°19'0 0.0
2017-Oct-18 20:53S 24°10' W 046°19'0 0.0
2017-Oct-18 20:29S 24°10' W 046°19'0 0.0
2017-Oct-18 19:50S 24°10' W 046°19'0 0.0
2017-Oct-18 19:29S 24°10' W 046°19'0 0.0
2017-Oct-18 18:59S 24°10' W 046°19'0 0.0
2017-Oct-18 18:29S 24°10' W 046°19'0 0.0
2017-Oct-18 17:59S 24°10' W 046°19'0 0.0
2017-Oct-18 17:29S 24°10' W 046°19'0 0.0
2017-Oct-18 16:59S 24°10' W 046°19'0 0.0
2017-Oct-18 16:29S 24°10' W 046°19'0 0.0
2017-Oct-18 15:59S 24°10' W 046°19'0 0.0
2017-Oct-18 15:26S 24°10' W 046°19'0 0.0
2017-Oct-18 14:59S 24°10' W 046°19'0 0.0
2017-Oct-18 13:59S 24°10' W 046°19'0 0.0
2017-Oct-18 13:23S 24°10' W 046°19'0 0.0
2017-Oct-18 12:59S 24°10' W 046°19'0 0.0
2017-Oct-18 12:29S 24°10' W 046°19'0 0.0
2017-Oct-18 11:59S 24°10' W 046°19'0 0.0
2017-Oct-18 11:29S 24°10' W 046°19'0 0.1
2017-Oct-18 10:59S 24°10' W 046°19'0 0.0
2017-Oct-18 10:29S 24°10' W 046°19'0 0.0
2017-Oct-18 09:59S 24°10' W 046°19'0 0.0
2017-Oct-18 09:29S 24°10' W 046°19'0 0.0
2017-Oct-18 08:59S 24°10' W 046°19'0 0.0
2017-Oct-18 08:29S 24°10' W 046°19'0 0.0
2017-Oct-18 07:59S 24°10' W 046°19'0 0.1
2017-Oct-18 07:29S 24°10' W 046°19'0 0.0
2017-Oct-18 06:59S 24°10' W 046°19'0 0.0
2017-Oct-18 06:29S 24°10' W 046°19'0 0.0
2017-Oct-18 05:59S 24°10' W 046°19'0 0.0
2017-Oct-18 05:29S 24°10' W 046°19'0 0.0
2017-Oct-18 04:59S 24°10' W 046°19'0 0.0
2017-Oct-18 04:29S 24°10' W 046°19'0 0.0
2017-Oct-18 03:59S 24°10' W 046°19'0 0.0
2017-Oct-18 03:29S 24°10' W 046°19'0 0.0
2017-Oct-18 02:59S 24°10' W 046°19'0 0.0
2017-Oct-18 02:29S 24°10' W 046°19'0 0.0
2017-Oct-18 01:59S 24°10' W 046°19'0 0.0
2017-Oct-18 01:29S 24°10' W 046°19'0 0.0
2017-Oct-18 00:53S 24°10' W 046°19'0 0.0
2017-Oct-18 00:29S 24°10' W 046°19'0 0.0
2017-Oct-17 23:56S 24°10' W 046°19'0 0.0
2017-Oct-17 23:29S 24°10' W 046°19'0 0.0
2017-Oct-17 22:59S 24°10' W 046°19'0 0.0
2017-Oct-17 22:26S 24°10' W 046°19'0 0.0
2017-Oct-17 21:59S 24°10' W 046°19'0 0.0
2017-Oct-17 21:29S 24°10' W 046°19'0 0.0
2017-Oct-17 20:47S 24°10' W 046°19'0 0.0
2017-Oct-17 20:29S 24°10' W 046°19'0 0.0
2017-Oct-17 19:59S 24°10' W 046°19'0 0.0
2017-Oct-17 19:29S 24°10' W 046°19'0 0.0
2017-Oct-17 18:59S 24°10' W 046°19'0 0.0
2017-Oct-17 18:29S 24°10' W 046°19'0 0.0
2017-Oct-17 17:59S 24°10' W 046°19'0 0.0
2017-Oct-17 17:29S 24°10' W 046°19'0 0.0
2017-Oct-17 16:59S 24°10' W 046°19'0 0.0
2017-Oct-17 16:23S 24°10' W 046°19'0 0.0
2017-Oct-17 15:59S 24°10' W 046°19'0 0.0
2017-Oct-17 15:17S 24°10' W 046°19'0 0.0
2017-Oct-17 14:59S 24°10' W 046°19'0 0.0
2017-Oct-17 14:29S 24°10' W 046°19'0 0.0
2017-Oct-17 13:59S 24°10' W 046°19'0 0.0
2017-Oct-17 13:29S 24°10' W 046°19'0 0.0
2017-Oct-17 12:59S 24°10' W 046°19'0 0.0
2017-Oct-17 12:29S 24°10' W 046°19'0 0.0
2017-Oct-17 11:59S 24°10' W 046°19'0 0.0
2017-Oct-17 11:23S 24°10' W 046°19'0 0.0
2017-Oct-17 10:56S 24°10' W 046°19'0 0.0
2017-Oct-17 10:29S 24°10' W 046°19'0 0.0
2017-Oct-17 09:53S 24°10' W 046°19'0 0.0
2017-Oct-17 09:23S 24°10' W 046°19'0 0.0
2017-Oct-17 08:59S 24°10' W 046°19'0 0.0
2017-Oct-17 08:29S 24°10' W 046°19'0 0.0
2017-Oct-17 07:41S 24°10' W 046°19'0 0.0
2017-Oct-17 07:29S 24°10' W 046°19'0 0.0
2017-Oct-17 06:56S 24°10' W 046°19'0 0.0
2017-Oct-17 06:29S 24°10' W 046°19'0 0.0
2017-Oct-17 05:53S 24°10' W 046°19'0 0.0
2017-Oct-17 05:23S 24°10' W 046°19'0 0.0
2017-Oct-17 04:29S 24°10' W 046°19'0 0.0
2017-Oct-17 03:59S 24°10' W 046°19'0 0.0
2017-Oct-17 03:11S 24°10' W 046°19'0 0.0
2017-Oct-17 02:59S 24°10' W 046°19'0 0.0
2017-Oct-17 02:26S 24°10' W 046°19'0 0.0
2017-Oct-17 01:59S 24°10' W 046°19'0 0.0
2017-Oct-17 01:29S 24°10' W 046°19'0 0.0
2017-Oct-17 00:56S 24°10' W 046°19'0 0.0
2017-Oct-17 00:26S 24°10' W 046°19'0 0.1
2017-Oct-16 23:53S 24°10' W 046°19'0 0.0
2017-Oct-16 23:29S 24°10' W 046°19'0 0.0
2017-Oct-16 22:59S 24°10' W 046°19'0 0.0
2017-Oct-16 22:29S 24°10' W 046°19'0 0.0
2017-Oct-16 21:59S 24°10' W 046°19'0 0.0
2017-Oct-16 21:29S 24°10' W 046°19'0 0.0
2017-Oct-16 20:59S 24°10' W 046°19'0 0.0
2017-Oct-16 20:29S 24°10' W 046°19'0 0.0
2017-Oct-16 19:53S 24°10' W 046°19'0 0.0
2017-Oct-16 19:29S 24°10' W 046°19'0 0.0
2017-Oct-16 18:59S 24°10' W 046°19'0 0.1
2017-Oct-16 18:29S 24°10' W 046°19'0 0.1
2017-Oct-16 17:59S 24°10' W 046°19'0 0.0
2017-Oct-16 17:05S 24°10' W 046°19'0 0.4
2017-Oct-16 16:59S 24°10' W 046°19'0 0.1
2017-Oct-16 16:29S 24°10' W 046°19'0 0.0
2017-Oct-16 15:59S 24°10' W 046°19'0 0.0
2017-Oct-16 15:29S 24°10' W 046°19'0 0.0
2017-Oct-16 14:59S 24°10' W 046°19'0 0.0
2017-Oct-16 13:59S 24°10' W 046°19'0 0.0
2017-Oct-16 13:29S 24°10' W 046°19'0 0.1
2017-Oct-16 12:59S 24°10' W 046°19'0 0.0
2017-Oct-16 12:26S 24°10' W 046°19'0 0.0
2017-Oct-16 11:59S 24°10' W 046°19'0 0.0
2017-Oct-16 11:29S 24°10' W 046°19'0 0.1
2017-Oct-16 10:53S 24°10' W 046°19'0 0.0
2017-Oct-16 10:29S 24°10' W 046°19'0 0.1
2017-Oct-16 09:59S 24°10' W 046°19'0 0.0
2017-Oct-16 09:29S 24°10' W 046°19'0 0.0
2017-Oct-16 08:59S 24°10' W 046°19'0 0.0
2017-Oct-16 08:29S 24°10' W 046°19'0 0.0
2017-Oct-16 07:59S 24°10' W 046°19'0 0.1
2017-Oct-16 07:29S 24°10' W 046°19'0 0.0
2017-Oct-16 06:59S 24°10' W 046°19'0 0.1
2017-Oct-16 06:29S 24°10' W 046°19'0 0.0
2017-Oct-16 05:59S 24°10' W 046°19'0 0.0
2017-Oct-16 05:29S 24°10' W 046°19'0 0.0
2017-Oct-16 04:59S 24°10' W 046°19'0 0.0
2017-Oct-16 04:17S 24°10' W 046°19'0 0.0
2017-Oct-16 03:59S 24°10' W 046°19'0 0.0
2017-Oct-16 03:29S 24°10' W 046°19'0 0.0
2017-Oct-16 02:59S 24°10' W 046°19'0 0.0
2017-Oct-16 02:29S 24°10' W 046°19'0 0.0
2017-Oct-16 01:59S 24°10' W 046°19'0 0.0
2017-Oct-16 01:29S 24°10' W 046°19'0 0.0
2017-Oct-16 00:59S 24°10' W 046°19'0 0.0
2017-Oct-16 00:29S 24°10' W 046°19'0 0.0
2017-Oct-15 23:59S 24°10' W 046°19'0 0.0
2017-Oct-15 23:29S 24°10' W 046°19'0 0.0
2017-Oct-15 22:53S 24°10' W 046°19'0 0.0
2017-Oct-15 22:29S 24°10' W 046°19'0 0.0
2017-Oct-15 21:59S 24°10' W 046°19'0 0.0
2017-Oct-15 21:29S 24°10' W 046°19'0 0.0
2017-Oct-15 20:59S 24°10' W 046°19'0 0.0
2017-Oct-15 20:23S 24°10' W 046°19'0 0.1
2017-Oct-15 19:59S 24°10' W 046°19'0 0.0
2017-Oct-15 19:29S 24°10' W 046°19'0 0.1
2017-Oct-15 18:59S 24°09' W 046°19'0 0.1
2017-Oct-15 18:29S 24°10' W 046°19'0 0.0
2017-Oct-15 17:53S 24°10' W 046°19'0 0.0
2017-Oct-15 17:29S 24°10' W 046°19'0 0.1
2017-Oct-15 16:59S 24°09' W 046°19'0 0.0
2017-Oct-15 16:23S 24°09' W 046°19'0 0.0
2017-Oct-15 15:53S 24°09' W 046°19'0 0.0
2017-Oct-15 15:29S 24°09' W 046°19'0 0.0
2017-Oct-15 14:59S 24°09' W 046°19'0 0.1
2017-Oct-15 13:59S 24°09' W 046°19'0 0.0
2017-Oct-15 13:29S 24°09' W 046°19'0 0.1
2017-Oct-15 12:59S 24°09' W 046°19'0 0.1
2017-Oct-15 12:29S 24°09' W 046°19'0 0.1
2017-Oct-15 11:59S 24°09' W 046°19'0 0.0
2017-Oct-15 11:29S 24°09' W 046°19'0 0.0
2017-Oct-15 10:59S 24°09' W 046°19'0 0.0
2017-Oct-15 10:29S 24°09' W 046°19'0 0.0
2017-Oct-15 09:59S 24°09' W 046°19'0 0.1
2017-Oct-15 09:29S 24°09' W 046°19'  
Track history (hours):
 
Tides and Currents Weather Stations Pressure Air Temp Water Temp Dewpoint Dewpoint Depression Visibility Wind Speed Wind Dir Waves Ship Positions

Western Oslo

Last reported at 2017-Oct-25 09:02 UTC. Time now 2017-Nov-21 04:08 UTC.
Position S 24°20' W 045°56'.
Warning: this ship's position is 26 days out of date.

Length 190 m; draft 12.7 m.

Type: Cargo ship. MMSI: 257460000.

Date/timePositionNaut miles runAvg speedWind from/ knotsBaromVisibWave heightAir tempDewpointWater temp
2017-Oct-25 09:02S 24°20' W 045°56'110.2
2017-Oct-25 08:59S 24°20' W 045°57'510.1
2017-Oct-25 08:30S 24°18' W 046°01'510.1
2017-Oct-25 08:00S 24°16' W 046°07'510.1
2017-Oct-25 07:29S 24°15' W 046°12'5 9.9
2017-Oct-25 07:00S 24°14' W 046°17'5 9.1
2017-Oct-25 06:30S 24°12' W 046°22'5 9.4
2017-Oct-25 06:00S 24°07' W 046°23'4 7.7
2017-Oct-25 05:30S 24°04' W 046°22'3 6.7
2017-Oct-25 05:01S 24°01' W 046°20'3 6.2
2017-Oct-25 04:30S 23°59' W 046°17'3 5.5
2017-Oct-25 03:59S 23°56' W 046°19'0 0.0
2017-Oct-24 10:34S 23°57' W 046°19'0 0.1
2017-Oct-24 10:28S 23°57' W 046°19'0 0.0
2017-Oct-24 09:49S 23°57' W 046°19'0 0.0
2017-Oct-24 09:22S 23°57' W 046°19'0 0.0
2017-Oct-24 08:58S 23°57' W 046°19'0 0.0
2017-Oct-24 08:28S 23°57' W 046°19'0 0.0
2017-Oct-24 07:52S 23°57' W 046°19'0 0.0
2017-Oct-24 07:28S 23°57' W 046°19'0 0.0
2017-Oct-24 06:58S 23°57' W 046°19'0 0.0
2017-Oct-24 06:28S 23°57' W 046°19'0 0.0
2017-Oct-24 05:58S 23°57' W 046°19'0 0.0
2017-Oct-24 05:22S 23°57' W 046°19'0 0.0
2017-Oct-24 04:58S 23°57' W 046°19'0 0.0
2017-Oct-24 04:28S 23°57' W 046°19'0 0.0
2017-Oct-24 03:58S 23°57' W 046°19'0 0.0
2017-Oct-24 03:28S 23°57' W 046°19'0 0.0
2017-Oct-24 02:58S 23°57' W 046°19'0 0.0
2017-Oct-24 02:28S 23°57' W 046°19'0 0.0
2017-Oct-24 01:58S 23°57' W 046°19'0 0.0
2017-Oct-24 01:28S 23°57' W 046°19'0 0.0
2017-Oct-24 00:58S 23°57' W 046°19'0 0.0
2017-Oct-24 00:28S 23°57' W 046°19'0 0.0
2017-Oct-23 23:52S 23°57' W 046°19'0 0.0
2017-Oct-23 23:10S 23°57' W 046°19'0 0.0
2017-Oct-23 22:58S 23°57' W 046°19'0 0.0
2017-Oct-23 22:28S 23°57' W 046°19'0 0.0
2017-Oct-23 21:58S 23°57' W 046°19'0 0.0
2017-Oct-23 21:16S 23°57' W 046°19'0 0.0
2017-Oct-23 20:52S 23°57' W 046°19'0 0.0
2017-Oct-23 20:22S 23°57' W 046°19'0 0.0
2017-Oct-23 19:58S 23°57' W 046°19'0 0.0
2017-Oct-23 19:25S 23°57' W 046°19'0 0.0
2017-Oct-23 18:40S 23°57' W 046°19'0 0.0
2017-Oct-23 18:22S 23°57' W 046°19'0 0.0
2017-Oct-23 17:55S 23°57' W 046°19'0 0.0
2017-Oct-23 17:25S 23°57' W 046°19'0 0.0
2017-Oct-23 16:58S 23°57' W 046°19'0 0.0
2017-Oct-23 15:22S 23°57' W 046°19'0 0.0
2017-Oct-23 14:58S 23°57' W 046°19'0 0.0
2017-Oct-23 14:28S 23°57' W 046°19'0 0.0
2017-Oct-23 13:58S 23°57' W 046°19'0 0.0
2017-Oct-23 13:25S 23°57' W 046°19'0 0.0
2017-Oct-23 12:46S 23°57' W 046°19'0 0.0
2017-Oct-23 12:28S 23°57' W 046°19'0 0.0
2017-Oct-23 11:58S 23°57' W 046°19'0 0.0
2017-Oct-23 11:22S 23°57' W 046°19'0 0.0
2017-Oct-23 10:52S 23°57' W 046°19'0 0.0
2017-Oct-23 10:28S 23°57' W 046°19'0 0.0
2017-Oct-23 09:58S 23°57' W 046°19'0 0.0
2017-Oct-23 09:28S 23°57' W 046°19'0 0.0
2017-Oct-23 08:46S 23°57' W 046°19'0 0.0
2017-Oct-23 08:28S 23°57' W 046°19'0 0.0
2017-Oct-23 07:55S 23°57' W 046°19'0 0.0
2017-Oct-23 07:25S 23°57' W 046°19'0 0.0
2017-Oct-23 06:58S 23°57' W 046°19'0 0.0
2017-Oct-23 06:22S 23°57' W 046°19'0 0.0
2017-Oct-23 05:58S 23°57' W 046°19'0 0.0
2017-Oct-23 05:28S 23°57' W 046°19'0 0.0
2017-Oct-23 04:46S 23°57' W 046°19'0 0.0
2017-Oct-23 04:22S 23°57' W 046°19'0 0.0
2017-Oct-23 03:55S 23°57' W 046°19'0 0.0
2017-Oct-23 03:28S 23°57' W 046°19'0 0.0
2017-Oct-23 02:58S 23°57' W 046°19'0 0.0
2017-Oct-23 02:28S 23°57' W 046°19'0 0.0
2017-Oct-23 01:58S 23°57' W 046°19'0 0.0
2017-Oct-23 01:28S 23°57' W 046°19'0 0.0
2017-Oct-23 00:40S 23°57' W 046°19'0 0.0
2017-Oct-23 00:28S 23°57' W 046°19'0 0.0
2017-Oct-22 23:49S 23°57' W 046°19'0 0.0
2017-Oct-22 23:28S 23°57' W 046°19'0 0.0
2017-Oct-22 22:58S 23°57' W 046°19'0 0.0
2017-Oct-22 22:28S 23°57' W 046°19'0 0.0
2017-Oct-22 21:58S 23°57' W 046°19'0 0.0
2017-Oct-22 21:28S 23°57' W 046°19'0 0.0
2017-Oct-22 20:58S 23°57' W 046°19'0 0.0
2017-Oct-22 20:28S 23°57' W 046°19'0 0.0
2017-Oct-22 19:58S 23°57' W 046°19'0 0.0
2017-Oct-22 19:28S 23°57' W 046°19'0 0.0
2017-Oct-22 18:58S 23°57' W 046°19'0 0.0
2017-Oct-22 18:28S 23°57' W 046°19'0 0.0
2017-Oct-22 17:58S 23°57' W 046°19'0 0.0
2017-Oct-22 17:25S 23°57' W 046°19'0 0.0
2017-Oct-22 16:58S 23°57' W 046°19'0 0.0
2017-Oct-22 16:28S 23°57' W 046°19'0 0.0
2017-Oct-22 15:58S 23°57' W 046°19'0 0.0
2017-Oct-22 15:28S 23°57' W 046°19'0 0.0
2017-Oct-22 14:46S 23°57' W 046°19'0 0.0
2017-Oct-22 14:28S 23°57' W 046°19'0 0.0
2017-Oct-22 13:58S 23°57' W 046°19'0 0.0
2017-Oct-22 13:28S 23°57' W 046°19'0 0.0
2017-Oct-22 12:46S 23°57' W 046°19'0 0.0
2017-Oct-22 12:28S 23°57' W 046°19'0 0.0
2017-Oct-22 11:46S 23°57' W 046°19'0 0.0
2017-Oct-22 11:28S 23°57' W 046°19'0 0.0
2017-Oct-22 10:58S 23°57' W 046°19'0 0.0
2017-Oct-22 10:28S 23°57' W 046°19'0 0.0
2017-Oct-22 09:58S 23°57' W 046°19'0 0.1
2017-Oct-22 09:30S 23°57' W 046°19'2 4.1
2017-Oct-22 09:00S 23°58' W 046°18'3 6.0
2017-Oct-22 08:30S 24°00' W 046°20'3 6.2
2017-Oct-22 08:00S 24°03' W 046°21'3 6.6
2017-Oct-22 07:30S 24°06' W 046°23'4 8.7
2017-Oct-22 07:00S 24°09' W 046°20'1 2.4
2017-Oct-22 06:29S 24°10' W 046°19'0 0.1
2017-Oct-22 05:59S 24°09' W 046°19'0 0.1
2017-Oct-22 05:29S 24°09' W 046°19'0 0.0
2017-Oct-22 04:59S 24°09' W 046°19'0 0.0
2017-Oct-22 04:29S 24°09' W 046°19'0 0.1
2017-Oct-22 03:59S 24°09' W 046°19'0 0.0
2017-Oct-22 03:29S 24°09' W 046°19'0 0.0
2017-Oct-22 02:50S 24°09' W 046°19'0 0.0
2017-Oct-22 02:29S 24°09' W 046°19'0 0.0
2017-Oct-22 01:59S 24°09' W 046°19'0 0.0
2017-Oct-22 01:29S 24°09' W 046°19'0 0.1
2017-Oct-22 00:59S 24°09' W 046°19'0 0.2
2017-Oct-22 00:29S 24°10' W 046°19'0 0.0
2017-Oct-21 23:59S 24°10' W 046°19'0 0.0
2017-Oct-21 23:29S 24°10' W 046°19'0 0.0
2017-Oct-21 22:59S 24°10' W 046°19'0 0.0
2017-Oct-21 22:29S 24°10' W 046°19'0 0.0
2017-Oct-21 21:59S 24°10' W 046°19'0 0.2
2017-Oct-21 21:29S 24°10' W 046°19'0 0.1
2017-Oct-21 20:59S 24°10' W 046°19'0 0.0
2017-Oct-21 20:23S 24°10' W 046°19'0 0.1
2017-Oct-21 19:59S 24°10' W 046°19'0 0.0
2017-Oct-21 19:29S 24°10' W 046°19'0 0.0
2017-Oct-21 18:53S 24°10' W 046°19'0 0.0
2017-Oct-21 18:29S 24°10' W 046°19'0 0.0
2017-Oct-21 17:59S 24°10' W 046°19'0 0.0
2017-Oct-21 17:29S 24°10' W 046°19'0 0.0
2017-Oct-21 16:59S 24°10' W 046°19'0 0.1
2017-Oct-21 16:29S 24°10' W 046°19'0 0.1
2017-Oct-21 15:59S 24°10' W 046°19'0 0.0
2017-Oct-21 15:29S 24°10' W 046°19'0 0.0
2017-Oct-21 14:59S 24°10' W 046°19'0 0.0
2017-Oct-21 14:29S 24°10' W 046°19'0 0.0
2017-Oct-21 13:29S 24°10' W 046°19'0 0.1
2017-Oct-21 12:59S 24°10' W 046°19'0 0.1
2017-Oct-21 12:23S 24°10' W 046°19'0 0.1
2017-Oct-21 11:59S 24°10' W 046°19'0 0.1
2017-Oct-21 11:29S 24°10' W 046°19'0 0.0
2017-Oct-21 10:59S 24°10' W 046°19'0 0.1
2017-Oct-21 10:29S 24°10' W 046°19'0 0.0
2017-Oct-21 09:59S 24°10' W 046°19'0 0.0
2017-Oct-21 09:29S 24°10' W 046°19'0 0.0
2017-Oct-21 08:59S 24°10' W 046°19'0 0.0
2017-Oct-21 08:23S 24°10' W 046°19'0 0.1
2017-Oct-21 07:53S 24°10' W 046°19'0 0.0
2017-Oct-21 07:29S 24°10' W 046°19'0 0.0
2017-Oct-21 06:59S 24°10' W 046°19'0 0.1
2017-Oct-21 06:29S 24°09' W 046°19'0 0.0
2017-Oct-21 05:59S 24°09' W 046°19'0 0.0
2017-Oct-21 05:29S 24°09' W 046°19'0 0.0
2017-Oct-21 04:59S 24°09' W 046°19'0 0.0
2017-Oct-21 04:29S 24°09' W 046°19'0 0.0
2017-Oct-21 03:59S 24°09' W 046°19'0 0.0
2017-Oct-21 03:29S 24°09' W 046°19'0 0.0
2017-Oct-21 02:53S 24°09' W 046°19'0 0.0
2017-Oct-21 02:29S 24°09' W 046°19'0 0.0
2017-Oct-21 01:59S 24°09' W 046°19'0 0.0
2017-Oct-21 01:29S 24°09' W 046°19'0 0.0
2017-Oct-21 00:59S 24°09' W 046°19'0 0.0
2017-Oct-21 00:26S 24°09' W 046°19'0 0.0
2017-Oct-20 23:59S 24°09' W 046°19'0 0.0
2017-Oct-20 23:29S 24°09' W 046°19'0 0.0
2017-Oct-20 22:59S 24°09' W 046°19'0 0.0
2017-Oct-20 22:29S 24°09' W 046°19'0 0.0
2017-Oct-20 21:56S 24°09' W 046°19'0 0.0
2017-Oct-20 21:26S 24°09' W 046°19'0 0.0
2017-Oct-20 20:59S 24°09' W 046°19'0 0.0
2017-Oct-20 20:29S 24°09' W 046°19'0 0.0
2017-Oct-20 19:59S 24°09' W 046°19'0 0.0
2017-Oct-20 19:29S 24°09' W 046°19'0 0.1
2017-Oct-20 18:59S 24°09' W 046°19'0 0.0
2017-Oct-20 18:29S 24°09' W 046°19'0 0.0
2017-Oct-20 17:59S 24°09' W 046°19'0 0.0
2017-Oct-20 17:23S 24°09' W 046°19'0 0.0
2017-Oct-20 16:59S 24°09' W 046°19'0 0.0
2017-Oct-20 16:29S 24°09' W 046°19'0 0.0
2017-Oct-20 15:59S 24°09' W 046°19'0 0.0
2017-Oct-20 15:29S 24°09' W 046°19'0 0.0
2017-Oct-20 14:59S 24°09' W 046°19'0 0.0
2017-Oct-20 14:29S 24°09' W 046°19'0 0.0
2017-Oct-20 13:29S 24°09' W 046°19'0 0.0
2017-Oct-20 12:59S 24°09' W 046°19'0 0.0
2017-Oct-20 12:29S 24°09' W 046°19'0 0.0
2017-Oct-20 11:59S 24°09' W 046°19'0 0.0
2017-Oct-20 11:29S 24°09' W 046°19'0 0.0
2017-Oct-20 10:59S 24°09' W 046°19'0 0.0
2017-Oct-20 10:29S 24°09' W 046°19'0 0.0
2017-Oct-20 09:59S 24°09' W 046°19'0 0.0
2017-Oct-20 09:29S 24°09' W 046°19'0 0.0
2017-Oct-20 08:59S 24°09' W 046°19'0 0.0
2017-Oct-20 08:29S 24°09' W 046°19'0 0.0
2017-Oct-20 07:59S 24°09' W 046°19'0 0.0
2017-Oct-20 07:29S 24°09' W 046°19'0 0.0
2017-Oct-20 06:59S 24°09' W 046°19'0 0.0
2017-Oct-20 06:29S 24°09' W 046°19'0 0.0
2017-Oct-20 05:59S 24°09' W 046°19'0 0.0
2017-Oct-20 05:29S 24°09' W 046°19'0 0.0
2017-Oct-20 04:59S 24°09' W 046°19'0 0.0
2017-Oct-20 04:23S 24°09' W 046°19'0 0.0
2017-Oct-20 03:59S 24°09' W 046°19'0 0.0
2017-Oct-20 03:23S 24°09' W 046°19'0 0.0
2017-Oct-20 02:59S 24°09' W 046°19'0 0.0
2017-Oct-20 02:26S 24°09' W 046°19'0 0.0
2017-Oct-20 01:59S 24°09' W 046°19'0 0.0
2017-Oct-20 01:29S 24°09' W 046°19'0 0.1
2017-Oct-20 00:59S 24°09' W 046°19'0 0.0
2017-Oct-20 00:29S 24°10' W 046°19'0 0.0
2017-Oct-19 23:59S 24°10' W 046°19'0 0.0
2017-Oct-19 23:29S 24°10' W 046°19'0 0.0
2017-Oct-19 22:59S 24°10' W 046°19'0 0.0
2017-Oct-19 22:29S 24°09' W 046°19'0 0.0
2017-Oct-19 21:59S 24°09' W 046°19'0 0.1
2017-Oct-19 21:29S 24°09' W 046°19'0 0.4
2017-Oct-19 20:53S 24°10' W 046°19'0 0.1
2017-Oct-19 20:29S 24°10' W 046°19'0 0.0
2017-Oct-19 19:59S 24°10' W 046°19'0 0.0
2017-Oct-19 19:17S 24°10' W 046°19'0 0.0
2017-Oct-19 18:59S 24°10' W 046°19'0 0.0
2017-Oct-19 18:29S 24°10' W 046°19'0 0.0
2017-Oct-19 17:59S 24°10' W 046°19'0 0.0
2017-Oct-19 17:29S 24°10' W 046°19'0 0.0
2017-Oct-19 16:59S 24°10' W 046°19'0 0.0
2017-Oct-19 16:29S 24°10' W 046°19'0 0.0
2017-Oct-19 15:59S 24°10' W 046°19'0 0.0
2017-Oct-19 15:29S 24°10' W 046°19'0 0.0
2017-Oct-19 14:59S 24°10' W 046°19'0 0.0
2017-Oct-19 14:29S 24°10' W 046°19'0 0.0
2017-Oct-19 13:59S 24°10' W 046°19'0 0.0
2017-Oct-19 13:29S 24°10' W 046°19'0 0.0
2017-Oct-19 12:59S 24°10' W 046°19'0 0.0
2017-Oct-19 12:29S 24°10' W 046°19'0 0.0
2017-Oct-19 11:59S 24°10' W 046°19'0 0.0
2017-Oct-19 11:23S 24°10' W 046°19'0 0.1
2017-Oct-19 10:59S 24°10' W 046°19'0 0.0
2017-Oct-19 10:29S 24°10' W 046°19'0 0.0
2017-Oct-19 09:53S 24°10' W 046°19'0 0.0
2017-Oct-19 09:29S 24°10' W 046°19'0 0.0
2017-Oct-19 08:53S 24°10' W 046°19'0 0.0
2017-Oct-19 08:29S 24°10' W 046°19'0 0.0
2017-Oct-19 07:59S 24°10' W 046°19'0 0.0
2017-Oct-19 07:29S 24°10' W 046°19'0 0.1
2017-Oct-19 06:53S 24°10' W 046°19'0 0.0
2017-Oct-19 06:29S 24°10' W 046°19'0 0.0
2017-Oct-19 05:59S 24°10' W 046°19'0 0.0
2017-Oct-19 05:29S 24°10' W 046°19'0 0.0
2017-Oct-19 04:59S 24°10' W 046°19'0 0.0
2017-Oct-19 04:29S 24°10' W 046°19'0 0.1
2017-Oct-19 03:59S 24°10' W 046°19'0 0.0
2017-Oct-19 03:29S 24°10' W 046°19'0 0.0
2017-Oct-19 02:41S 24°10' W 046°19'0 0.0
2017-Oct-19 02:29S 24°10' W 046°19'0 0.0
2017-Oct-19 01:59S 24°10' W 046°19'0 0.0
2017-Oct-19 01:29S 24°10' W 046°19'0 0.0
2017-Oct-19 00:59S 24°10' W 046°19'0 0.0
2017-Oct-19 00:29S 24°10' W 046°19'0 0.0
2017-Oct-18 23:59S 24°10' W 046°19'0 0.0
2017-Oct-18 23:17S 24°10' W 046°19'0 0.0
2017-Oct-18 22:59S 24°10' W 046°19'0 0.0
2017-Oct-18 22:26S 24°10' W 046°19'0 0.0
2017-Oct-18 21:53S 24°10' W 046°19'0 0.0
2017-Oct-18 21:29S 24°10' W 046°19'0 0.0
2017-Oct-18 20:53S 24°10' W 046°19'0 0.0
2017-Oct-18 20:29S 24°10' W 046°19'0 0.0
2017-Oct-18 19:50S 24°10' W 046°19'0 0.0
2017-Oct-18 19:29S 24°10' W 046°19'0 0.0
2017-Oct-18 18:59S 24°10' W 046°19'0 0.0
2017-Oct-18 18:29S 24°10' W 046°19'0 0.0
2017-Oct-18 17:59S 24°10' W 046°19'0 0.0
2017-Oct-18 17:29S 24°10' W 046°19'0 0.0
2017-Oct-18 16:59S 24°10' W 046°19'0 0.0
2017-Oct-18 16:29S 24°10' W 046°19'0 0.0
2017-Oct-18 15:59S 24°10' W 046°19'0 0.0
2017-Oct-18 15:26S 24°10' W 046°19'0 0.0
2017-Oct-18 14:59S 24°10' W 046°19'0 0.0
2017-Oct-18 13:59S 24°10' W 046°19'0 0.0
2017-Oct-18 13:23S 24°10' W 046°19'0 0.0
2017-Oct-18 12:59S 24°10' W 046°19'0 0.0
2017-Oct-18 12:29S 24°10' W 046°19'0 0.0
2017-Oct-18 11:59S 24°10' W 046°19'0 0.0
2017-Oct-18 11:29S 24°10' W 046°19'0 0.1
2017-Oct-18 10:59S 24°10' W 046°19'0 0.0
2017-Oct-18 10:29S 24°10' W 046°19'0 0.0
2017-Oct-18 09:59S 24°10' W 046°19'0 0.0
2017-Oct-18 09:29S 24°10' W 046°19'0 0.0
2017-Oct-18 08:59S 24°10' W 046°19'0 0.0
2017-Oct-18 08:29S 24°10' W 046°19'0 0.0
2017-Oct-18 07:59S 24°10' W 046°19'0 0.1
2017-Oct-18 07:29S 24°10' W 046°19'0 0.0
2017-Oct-18 06:59S 24°10' W 046°19'0 0.0
2017-Oct-18 06:29S 24°10' W 046°19'0 0.0
2017-Oct-18 05:59S 24°10' W 046°19'0 0.0
2017-Oct-18 05:29S 24°10' W 046°19'0 0.0
2017-Oct-18 04:59S 24°10' W 046°19'0 0.0
2017-Oct-18 04:29S 24°10' W 046°19'0 0.0
2017-Oct-18 03:59S 24°10' W 046°19'0 0.0
2017-Oct-18 03:29S 24°10' W 046°19'0 0.0
2017-Oct-18 02:59S 24°10' W 046°19'0 0.0
2017-Oct-18 02:29S 24°10' W 046°19'0 0.0
2017-Oct-18 01:59S 24°10' W 046°19'0 0.0
2017-Oct-18 01:29S 24°10' W 046°19'0 0.0
2017-Oct-18 00:53S 24°10' W 046°19'0 0.0
2017-Oct-18 00:29S 24°10' W 046°19'0 0.0
2017-Oct-17 23:56S 24°10' W 046°19'0 0.0
2017-Oct-17 23:29S 24°10' W 046°19'0 0.0
2017-Oct-17 22:59S 24°10' W 046°19'0 0.0
2017-Oct-17 22:26S 24°10' W 046°19'0 0.0
2017-Oct-17 21:59S 24°10' W 046°19'0 0.0
2017-Oct-17 21:29S 24°10' W 046°19'0 0.0
2017-Oct-17 20:47S 24°10' W 046°19'0 0.0
2017-Oct-17 20:29S 24°10' W 046°19'0 0.0
2017-Oct-17 19:59S 24°10' W 046°19'0 0.0
2017-Oct-17 19:29S 24°10' W 046°19'0 0.0
2017-Oct-17 18:59S 24°10' W 046°19'0 0.0
2017-Oct-17 18:29S 24°10' W 046°19'0 0.0
2017-Oct-17 17:59S 24°10' W 046°19'0 0.0
2017-Oct-17 17:29S 24°10' W 046°19'0 0.0
2017-Oct-17 16:59S 24°10' W 046°19'0 0.0
2017-Oct-17 16:23S 24°10' W 046°19'0 0.0
2017-Oct-17 15:59S 24°10' W 046°19'0 0.0
2017-Oct-17 15:17S 24°10' W 046°19'0 0.0
2017-Oct-17 14:59S 24°10' W 046°19'0 0.0
2017-Oct-17 14:29S 24°10' W 046°19'0 0.0
2017-Oct-17 13:59S 24°10' W 046°19'0 0.0
2017-Oct-17 13:29S 24°10' W 046°19'0 0.0
2017-Oct-17 12:59S 24°10' W 046°19'0 0.0
2017-Oct-17 12:29S 24°10' W 046°19'0 0.0
2017-Oct-17 11:59S 24°10' W 046°19'0 0.0
2017-Oct-17 11:23S 24°10' W 046°19'0 0.0
2017-Oct-17 10:56S 24°10' W 046°19'0 0.0
2017-Oct-17 10:29S 24°10' W 046°19'0 0.0
2017-Oct-17 09:53S 24°10' W 046°19'0 0.0
2017-Oct-17 09:23S 24°10' W 046°19'0 0.0
2017-Oct-17 08:59S 24°10' W 046°19'0 0.0
2017-Oct-17 08:29S 24°10' W 046°19'0 0.0
2017-Oct-17 07:41S 24°10' W 046°19'0 0.0
2017-Oct-17 07:29S 24°10' W 046°19'0 0.0
2017-Oct-17 06:56S 24°10' W 046°19'0 0.0
2017-Oct-17 06:29S 24°10' W 046°19'0 0.0
2017-Oct-17 05:53S 24°10' W 046°19'0 0.0
2017-Oct-17 05:23S 24°10' W 046°19'0 0.0
2017-Oct-17 04:29S 24°10' W 046°19'0 0.0
2017-Oct-17 03:59S 24°10' W 046°19'0 0.0
2017-Oct-17 03:11S 24°10' W 046°19'0 0.0
2017-Oct-17 02:59S 24°10' W 046°19'0 0.0
2017-Oct-17 02:26S 24°10' W 046°19'0 0.0
2017-Oct-17 01:59S 24°10' W 046°19'0 0.0
2017-Oct-17 01:29S 24°10' W 046°19'0 0.0
2017-Oct-17 00:56S 24°10' W 046°19'0 0.0
2017-Oct-17 00:26S 24°10' W 046°19'0 0.1
2017-Oct-16 23:53S 24°10' W 046°19'0 0.0
2017-Oct-16 23:29S 24°10' W 046°19'0 0.0
2017-Oct-16 22:59S 24°10' W 046°19'0 0.0
2017-Oct-16 22:29S 24°10' W 046°19'0 0.0
2017-Oct-16 21:59S 24°10' W 046°19'0 0.0
2017-Oct-16 21:29S 24°10' W 046°19'0 0.0
2017-Oct-16 20:59S 24°10' W 046°19'0 0.0
2017-Oct-16 20:29S 24°10' W 046°19'0 0.0
2017-Oct-16 19:53S 24°10' W 046°19'0 0.0
2017-Oct-16 19:29S 24°10' W 046°19'0 0.0
2017-Oct-16 18:59S 24°10' W 046°19'0 0.1
2017-Oct-16 18:29S 24°10' W 046°19'0 0.1
2017-Oct-16 17:59S 24°10' W 046°19'0 0.0
2017-Oct-16 17:05S 24°10' W 046°19'0 0.4
2017-Oct-16 16:59S 24°10' W 046°19'0 0.1
2017-Oct-16 16:29S 24°10' W 046°19'0 0.0
2017-Oct-16 15:59S 24°10' W 046°19'0 0.0
2017-Oct-16 15:29S 24°10' W 046°19'0 0.0
2017-Oct-16 14:59S 24°10' W 046°19'0 0.0
2017-Oct-16 13:59S 24°10' W 046°19'0 0.0
2017-Oct-16 13:29S 24°10' W 046°19'0 0.1
2017-Oct-16 12:59S 24°10' W 046°19'0 0.0
2017-Oct-16 12:26S 24°10' W 046°19'0 0.0
2017-Oct-16 11:59S 24°10' W 046°19'0 0.0
2017-Oct-16 11:29S 24°10' W 046°19'0 0.1
2017-Oct-16 10:53S 24°10' W 046°19'0 0.0
2017-Oct-16 10:29S 24°10' W 046°19'0 0.1
2017-Oct-16 09:59S 24°10' W 046°19'0 0.0
2017-Oct-16 09:29S 24°10' W 046°19'0 0.0
2017-Oct-16 08:59S 24°10' W 046°19'0 0.0
2017-Oct-16 08:29S 24°10' W 046°19'0 0.0
2017-Oct-16 07:59S 24°10' W 046°19'0 0.1
2017-Oct-16 07:29S 24°10' W 046°19'0 0.0
2017-Oct-16 06:59S 24°10' W 046°19'0 0.1
2017-Oct-16 06:29S 24°10' W 046°19'0 0.0
2017-Oct-16 05:59S 24°10' W 046°19'0 0.0
2017-Oct-16 05:29S 24°10' W 046°19'0 0.0
2017-Oct-16 04:59S 24°10' W 046°19'0 0.0
2017-Oct-16 04:17S 24°10' W 046°19'0 0.0
2017-Oct-16 03:59S 24°10' W 046°19'0 0.0
2017-Oct-16 03:29S 24°10' W 046°19'0 0.0
2017-Oct-16 02:59S 24°10' W 046°19'0 0.0
2017-Oct-16 02:29S 24°10' W 046°19'0 0.0
2017-Oct-16 01:59S 24°10' W 046°19'0 0.0
2017-Oct-16 01:29S 24°10' W 046°19'0 0.0
2017-Oct-16 00:59S 24°10' W 046°19'0 0.0
2017-Oct-16 00:29S 24°10' W 046°19'0 0.0
2017-Oct-15 23:59S 24°10' W 046°19'0 0.0
2017-Oct-15 23:29S 24°10' W 046°19'0 0.0
2017-Oct-15 22:53S 24°10' W 046°19'0 0.0
2017-Oct-15 22:29S 24°10' W 046°19'0 0.0
2017-Oct-15 21:59S 24°10' W 046°19'0 0.0
2017-Oct-15 21:29S 24°10' W 046°19'0 0.0
2017-Oct-15 20:59S 24°10' W 046°19'0 0.0
2017-Oct-15 20:23S 24°10' W 046°19'0 0.1
2017-Oct-15 19:59S 24°10' W 046°19'0 0.0
2017-Oct-15 19:29S 24°10' W 046°19'0 0.1
2017-Oct-15 18:59S 24°09' W 046°19'0 0.1
2017-Oct-15 18:29S 24°10' W 046°19'0 0.0
2017-Oct-15 17:53S 24°10' W 046°19'0 0.0
2017-Oct-15 17:29S 24°10' W 046°19'0 0.1
2017-Oct-15 16:59S 24°09' W 046°19'0 0.0
2017-Oct-15 16:23S 24°09' W 046°19'0 0.0
2017-Oct-15 15:53S 24°09' W 046°19'0 0.0
2017-Oct-15 15:29S 24°09' W 046°19'0 0.0
2017-Oct-15 14:59S 24°09' W 046°19'0 0.1
2017-Oct-15 13:59S 24°09' W 046°19'0 0.0
2017-Oct-15 13:29S 24°09' W 046°19'0 0.1
2017-Oct-15 12:59S 24°09' W 046°19'0 0.1
2017-Oct-15 12:29S 24°09' W 046°19'0 0.1
2017-Oct-15 11:59S 24°09' W 046°19'0 0.0
2017-Oct-15 11:29S 24°09' W 046°19'0 0.0
2017-Oct-15 10:59S 24°09' W 046°19'0 0.0
2017-Oct-15 10:29S 24°09' W 046°19'0 0.0
2017-Oct-15 09:59S 24°09' W 046°19'0 0.1
2017-Oct-15 09:29S 24°09' W 046°19'  

Dump ship's entire track history